Detall de PIREP

Printer-friendly versionPDF version

[2015/07/31 09:22:00]
Flight IATA:CT1005
Pilot Number:011
Company ICAO:CAT
Aircraft Type:B738/F
PAX:160
Departing Airport: ESPC
Destination Airport: LKKV
Alternate Airport:LKPR
Online: VATSIM
Route:DIGLO DCT LUGIL UT405 MEGEN UM852 LALIL UL996 ELVIX UN33 RAKIT UM725 KOBUS UP31 MAREM DCT GOPSI N869 KONAR
Flight Level:F380
No Slew and time accel
No pause
Crash detect
Detect pilot in Cockpit between each 30 and 45 minutes
09:22 Zero fuel Weight: 136491 Lbs, Fuel Weight: 19228 Lbs
09:22 VATSIM:No METAR available for ESPC.
09:22 VATSIM:LKKV 310900Z VRB05KT 9999 SCT038 15/05 Q1020
09:24 Parking Brakes off
09:35 Take-off
09:35 Take off Weight: 154879 Lbs
09:35 Wind: 290º @ 008 Knots Heading: 294º
09:35 POS N63º 11´ 42´´ E014º 29´ 47´´
09:35 Gear Up: 163 Knots
09:35 Flaps:5 at 163 Knots
09:36 Flaps:4 at 202 Knots
09:36 Flaps:3 at 209 Knots
09:36 Flaps:2 at 226 Knots
09:36 Flaps:1 at 227 Knots
09:36 Flaps:0 at 227 Knots
09:50 Wind:297º@026 Knots Heading: 186º Ground Speed: 381 Knots Altitude 35272 ft
09:51 TOC
09:51 Fuel Weight: 14936 Lb
10:05 Wind:291º@020 Knots Heading: 178º Ground Speed: 473 Knots Altitude 37814 ft
10:20 Wind:210º@032 Knots Heading: 207º Ground Speed: 438 Knots Altitude 37788 ft
10:35 Wind:260º@066 Knots Heading: 180º Ground Speed: 455 Knots Altitude 37949 ft
10:50 Wind:271º@068 Knots Heading: 188º Ground Speed: 463 Knots Altitude 38011 ft
11:05 Wind:270º@041 Knots Heading: 191º Ground Speed: 450 Knots Altitude 38113 ft
11:12 TOD
11:12 Fuel Weight: 8356 Lb
11:20 Wind:271º@028 Knots Heading: 220º Ground Speed: 378 Knots Altitude 26354 ft
11:34 Flaps:1 at 238 Knots
11:34 Flaps:2 at 236 Knots
11:34 Flaps:3 at 234 Knots
11:35 Wind:344º@005 Knots Heading: 196º Ground Speed: 247 Knots Altitude 4501 ft
11:36 Flaps:4 at 201 Knots
11:36 Flaps:5 at 189 Knots
11:38 Flaps:6 at 180 Knots
11:38 Gear Down: 180 Knots
11:39 Flaps:7 at 171 Knots
11:42 Flaps:8 at 158 Knots
11:45 TouchDown:Rate -288 ft/min Speed: 130 Knots
11:45 Gear Up: 116 Knots
11:45 Gear Down: 107 Knots
11:45 VATSIM:LKKV 311130Z 35005KT 300V090 CAVOK 17/05 Q1019
11:45 Land
11:45 Wind:331º@005 Knots
11:45 Heading: 293º
11:45 Flight Duration: 02:10
11:45 Landing Weight: 142554 Lbs
11:45 POS N50º 12´ 19´´ E012º 54´ 22´´
11:48 Parking brakes on
11:48 Block to Block Duration: 02:24
11:48 Final Fuel: 5822 Lbls
11:48 Spent Fuel: 13406 Lbls
11:48 Flight Length: 765 NM
11:48 TOD Land Length: 170 NM

Exportar CSV

Powered by Drupal - Modified by Danger4k